Time;durP1;ratioP1;P1;durP2;ratioP2;P2;SDS_P1;SDS_P2;PMS_P1;PMS_P2;Temp;Humidity;BMP_temperature;BMP_pressure;BME280_temperature;BME280_humidity;BME280_pressure;Samples;Min_cycle;Max_cycle;Signal;HPM_P1;HPM_P2
2022/09/05 00:00:21;;;;;;;7.38;2.97;;;;;;;15.08;80.41;98730.47;7382449;19;20010;-72
2022/09/05 00:03:09;;;;;;;5.18;3.40;;;;;;;15.11;80.86;98735.44;7386085;19;20019;-72
2022/09/05 00:05:49;;;;;;;5.30;3.38;;;;;;;15.20;80.54;98738.91;7384944;19;20100;-72
2022/09/05 00:08:34;;;;;;;2.90;2.47;;;;;;;15.12;80.22;98742.47;7386920;19;20018;-73
2022/09/05 00:11:13;;;;;;;2.88;2.50;;;;;;;15.02;80.36;98724.00;7386524;19;20033;-72
2022/09/05 00:14:06;;;;;;;3.50;2.80;;;;;;;15.00;80.25;98727.84;7382633;19;20118;-72
2022/09/05 00:16:47;;;;;;;3.55;2.45;;;;;;;15.00;80.33;98727.84;7385837;19;20030;-72
2022/09/05 00:19:27;;;;;;;7.00;3.00;;;;;;;14.96;80.54;98726.56;7385934;19;20029;-73
2022/09/05 00:22:26;;;;;;;5.07;3.05;;;;;;;14.93;80.76;98730.41;7384662;19;20045;-72
2022/09/05 00:25:22;;;;;;;7.35;2.72;;;;;;;14.90;81.02;98731.59;7386617;19;20017;-72
2022/09/05 00:28:13;;;;;;;3.35;3.00;;;;;;;14.87;81.40;98737.25;7384822;19;20002;-72
2022/09/05 00:31:18;;;;;;;4.05;2.90;;;;;;;14.88;80.76;98730.09;7382982;19;20019;-71
2022/09/05 00:34:34;;;;;;;4.70;2.75;;;;;;;14.84;80.63;98732.25;7384178;19;20485;-72
2022/09/05 00:37:25;;;;;;;3.30;2.47;;;;;;;14.80;80.97;98722.97;7384627;19;20018;-72
2022/09/05 00:40:12;;;;;;;6.75;2.67;;;;;;;14.83;80.92;98725.28;7384837;19;20027;-72
2022/09/05 00:42:47;;;;;;;3.65;2.67;;;;;;;14.82;81.24;98728.94;7380337;19;20510;-71
2022/09/05 00:45:36;;;;;;;2.75;2.55;;;;;;;14.82;81.50;98728.94;7385983;19;20054;-74
2022/09/05 00:48:12;;;;;;;4.20;3.08;;;;;;;14.78;81.73;98727.66;7382172;19;20438;-71
2022/09/05 00:51:03;;;;;;;2.92;2.60;;;;;;;14.86;81.80;98732.94;7382669;19;20014;-72
2022/09/05 00:53:41;;;;;;;5.25;2.85;;;;;;;14.96;81.16;98731.91;7382953;19;20025;-72
2022/09/05 00:56:26;;;;;;;2.38;2.17;;;;;;;14.92;80.64;98718.91;7384147;19;20015;-73
2022/09/05 00:59:02;;;;;;;3.42;2.75;;;;;;;14.98;80.13;98713.88;7386076;19;20362;-73
2022/09/05 01:01:37;;;;;;;8.35;3.10;;;;;;;14.92;80.24;98723.41;7379688;19;20025;-73
2022/09/05 01:04:14;;;;;;;3.10;2.63;;;;;;;14.87;81.02;98728.44;7381547;19;20022;-73
2022/09/05 01:07:07;;;;;;;5.32;2.90;;;;;;;14.82;81.12;98720.94;7384899;19;20025;-73
2022/09/05 01:10:02;;;;;;;3.72;3.13;;;;;;;14.87;81.18;98728.44;7387008;19;20014;-72
2022/09/05 01:12:55;;;;;;;5.95;3.05;;;;;;;14.94;81.58;98737.38;7388703;19;20018;-72
2022/09/05 01:15:32;;;;;;;6.63;2.78;;;;;;;14.92;81.42;98740.22;7391112;19;20026;-71
2022/09/05 01:18:07;;;;;;;3.80;2.90;;;;;;;14.78;80.83;98738.28;7392454;19;20375;-73
2022/09/05 01:20:54;;;;;;;3.40;3.10;;;;;;;14.56;81.11;98739.91;7387204;19;20540;-72
2022/09/05 01:23:46;;;;;;;3.92;3.38;;;;;;;14.54;81.28;98741.91;7391223;19;20010;-72
2022/09/05 01:26:29;;;;;;;3.28;2.92;;;;;;;14.61;82.37;98737.56;7390954;19;20541;-73
2022/09/05 01:28:59;;;;;;;3.50;3.17;;;;;;;14.59;82.39;98739.53;7393297;19;20023;-73
2022/09/05 01:32:03;;;;;;;3.88;3.00;;;;;;;14.65;81.35;98722.03;7385697;19;20022;-73
2022/09/05 01:34:43;;;;;;;3.35;2.72;;;;;;;14.61;81.31;98721.56;7392515;19;20381;-73
2022/09/05 01:37:18;;;;;;;3.55;3.05;;;;;;;14.56;81.54;98729.25;7387590;19;20010;-73
2022/09/05 01:40:18;;;;;;;4.50;2.50;;;;;;;14.59;81.41;98722.75;7388882;19;21293;-72
2022/09/05 01:43:00;;;;;;;8.07;3.22;;;;;;;14.62;81.54;98709.09;7388518;19;20022;-72
2022/09/05 01:45:54;;;;;;;2.97;2.78;;;;;;;14.65;81.39;98712.22;7391750;19;20037;-72
2022/09/05 01:49:02;;;;;;;4.07;2.97;;;;;;;14.59;81.54;98715.59;7389955;19;20054;-73
2022/09/05 01:52:03;;;;;;;4.28;2.72;;;;;;;14.64;81.38;98709.72;7386459;19;20047;-73
2022/09/05 01:54:45;;;;;;;3.70;2.47;;;;;;;14.68;81.26;98705.72;7387357;19;20014;-73
2022/09/05 01:57:26;;;;;;;4.83;3.00;;;;;;;14.70;81.20;98703.72;7389737;19;20018;-73
2022/09/05 02:00:08;;;;;;;3.55;2.83;;;;;;;14.73;80.83;98700.69;7386715;19;20759;-72
2022/09/05 02:02:50;;;;;;;3.33;3.03;;;;;;;14.71;80.83;98711.50;7389740;19;20053;-72
2022/09/05 02:05:25;;;;;;;3.13;2.83;;;;;;;14.66;80.85;98713.88;7391422;19;20014;-73
2022/09/05 02:08:28;;;;;;;3.60;3.03;;;;;;;14.62;81.45;98698.44;7390347;19;20474;-73
2022/09/05 02:11:11;;;;;;;4.50;3.17;;;;;;;14.62;81.25;98704.59;7387114;19;20029;-73
2022/09/05 02:13:52;;;;;;;5.88;3.75;;;;;;;14.56;81.44;98701.78;7389497;19;20376;-73
2022/09/05 02:16:35;;;;;;;5.80;3.25;;;;;;;14.43;81.87;98708.47;7387952;19;20029;-73
2022/09/05 02:19:18;;;;;;;4.57;3.25;;;;;;;14.46;81.80;98710.78;7387348;19;20089;-72
2022/09/05 02:22:05;;;;;;;3.65;2.80;;;;;;;14.28;81.92;98716.31;7388722;19;20026;-73
2022/09/05 02:24:35;;;;;;;3.95;3.17;;;;;;;14.24;82.06;98709.69;7388673;19;20779;-72
2022/09/05 02:27:21;;;;;;;5.05;3.47;;;;;;;14.21;82.12;98709.19;7385591;19;20335;-73
2022/09/05 02:30:24;;;;;;;8.20;3.38;;;;;;;14.16;82.60;98711.53;7390258;19;20022;-73
2022/09/05 02:33:04;;;;;;;7.60;3.72;;;;;;;14.07;82.77;98702.75;7386696;19;20026;-73
2022/09/05 02:35:51;;;;;;;4.38;3.22;;;;;;;13.91;83.17;98700.94;7389031;19;20323;-73
2022/09/05 02:38:37;;;;;;;3.97;3.58;;;;;;;13.90;83.08;98695.78;7389242;19;20010;-72
2022/09/05 02:41:35;;;;;;;3.70;3.08;;;;;;;13.94;82.84;98692.63;7387252;19;20006;-72
2022/09/05 02:44:50;;;;;;;3.42;3.13;;;;;;;13.83;83.65;98690.31;7386303;19;20029;-74
2022/09/05 02:47:58;;;;;;;5.82;3.75;;;;;;;13.87;83.73;98691.63;7389216;19;20017;-73
2022/09/05 02:50:56;;;;;;;4.00;2.95;;;;;;;13.83;83.82;98687.66;7388099;19;20019;-72
2022/09/05 02:53:49;;;;;;;7.72;3.95;;;;;;;13.80;84.06;98701.31;7386710;19;20098;-71
2022/09/05 02:56:50;;;;;;;6.15;3.78;;;;;;;14.01;83.71;98693.63;7385799;19;20019;-72
2022/09/05 03:00:05;;;;;;;6.85;4.00;;;;;;;13.97;83.88;98696.78;7385326;19;20485;-72
2022/09/05 03:02:49;;;;;;;4.57;3.50;;;;;;;13.78;83.61;98697.97;7387299;19;20019;-71
2022/09/05 03:05:23;;;;;;;4.50;3.88;;;;;;;13.95;83.94;98694.28;7385147;19;20019;-71
2022/09/05 03:08:15;;;;;;;4.07;3.35;;;;;;;13.99;83.59;98690.28;7386071;19;20014;-72
2022/09/05 03:11:25;;;;;;;4.28;3.88;;;;;;;13.80;83.54;98696.00;7387660;19;20014;-71
2022/09/05 03:14:20;;;;;;;4.68;4.20;;;;;;;13.55;83.93;98693.34;7385652;19;20035;-72
2022/09/05 03:17:08;;;;;;;7.85;4.05;;;;;;;13.42;84.43;98697.50;7386205;19;20397;-72
2022/09/05 03:19:53;;;;;;;4.15;3.72;;;;;;;13.30;85.25;98705.81;7385654;19;20611;-73
2022/09/05 03:22:41;;;;;;;7.25;4.30;;;;;;;13.23;85.37;98703.94;7383516;19;20022;-72
2022/09/05 03:25:30;;;;;;;4.38;3.80;;;;;;;13.50;85.17;98698.31;7384928;19;20022;-71
2022/09/05 03:28:50;;;;;;;5.10;3.58;;;;;;;13.48;85.20;98702.13;7386079;19;20026;-72
2022/09/05 03:31:40;;;;;;;9.27;4.20;;;;;;;13.47;85.15;98701.31;7384687;19;20022;-73
2022/09/05 03:34:18;;;;;;;4.78;4.20;;;;;;;13.47;84.87;98693.34;7383577;19;20015;-72
2022/09/05 03:37:20;;;;;;;6.60;4.00;;;;;;;13.54;84.68;98691.69;7386485;19;20017;-73
2022/09/05 03:39:59;;;;;;;4.35;3.67;;;;;;;13.52;84.35;98691.00;7383925;19;20018;-71
2022/09/05 03:42:54;;;;;;;4.45;3.40;;;;;;;13.54;84.36;98691.69;7384457;19;20017;-73
2022/09/05 03:45:39;;;;;;;6.38;3.63;;;;;;;13.56;84.47;98691.50;7385127;19;20018;-71
2022/09/05 03:48:35;;;;;;;5.60;3.60;;;;;;;13.59;84.84;98702.66;7385425;19;20018;-72
2022/09/05 03:51:14;;;;;;;5.03;3.65;;;;;;;13.56;84.94;98697.66;7382337;19;20014;-72
2022/09/05 03:54:28;;;;;;;4.28;3.30;;;;;;;13.55;85.18;98709.28;7386191;19;20010;-72
2022/09/05 03:57:30;;;;;;;5.38;4.35;;;;;;;13.58;84.77;98706.28;7383101;19;20018;-72
2022/09/05 04:00:19;;;;;;;3.60;3.30;;;;;;;13.47;84.71;98706.63;7384886;19;20056;-73
2022/09/05 04:03:08;;;;;;;3.85;3.50;;;;;;;13.50;84.35;98710.78;7386632;19;20018;-72
2022/09/05 04:06:06;;;;;;;4.65;3.53;;;;;;;13.54;84.50;98715.59;7387175;19;20002;-72
2022/09/05 04:09:02;;;;;;;3.47;3.17;;;;;;;13.54;84.21;98704.16;7386454;19;20521;-72
2022/09/05 04:11:34;;;;;;;5.82;3.30;;;;;;;13.55;84.17;98703.97;7381996;19;20018;-71
2022/09/05 04:14:06;;;;;;;5.00;3.08;;;;;;;13.52;84.35;98711.44;7385492;19;20074;-71
2022/09/05 04:16:48;;;;;;;5.10;3.30;;;;;;;13.52;84.53;98708.78;7385886;19;20026;-73
2022/09/05 04:19:23;;;;;;;5.13;3.55;;;;;;;13.63;84.54;98707.63;7386460;19;20011;-73
2022/09/05 04:22:17;;;;;;;8.40;3.25;;;;;;;13.76;84.36;98705.28;7384056;19;20014;-73
2022/09/05 04:24:52;;;;;;;4.20;3.67;;;;;;;13.75;84.35;98706.28;7382986;19;20800;-73
2022/09/05 04:27:24;;;;;;;3.90;3.50;;;;;;;13.77;84.11;98702.47;7382572;19;20022;-73
2022/09/05 04:29:57;;;;;;;5.80;3.40;;;;;;;13.78;84.13;98713.94;7383722;19;20014;-73
2022/09/05 04:32:45;;;;;;;5.60;4.10;;;;;;;13.74;84.01;98715.25;7382445;19;20019;-73
2022/09/05 04:35:27;;;;;;;7.20;3.53;;;;;;;13.73;84.04;98714.44;7382562;19;20113;-73
2022/09/05 04:38:16;;;;;;;4.43;3.50;;;;;;;13.71;84.28;98719.06;7385527;19;20118;-73
2022/09/05 04:40:59;;;;;;;6.88;3.58;;;;;;;13.57;84.54;98709.94;7377626;19;20024;-72
2022/09/05 04:43:34;;;;;;;6.18;3.50;;;;;;;13.53;84.46;98719.28;7386707;19;20029;-72
2022/09/05 04:46:13;;;;;;;6.50;4.13;;;;;;;13.52;84.26;98714.94;7389932;19;21717;-73
2022/09/05 04:48:48;;;;;;;5.78;3.70;;;;;;;13.60;84.03;98709.63;7389085;19;20086;-72
2022/09/05 04:51:47;;;;;;;4.10;3.47;;;;;;;13.73;83.67;98708.28;7389599;19;20018;-73
2022/09/05 04:54:38;;;;;;;4.07;3.67;;;;;;;13.75;83.57;98714.28;7390391;19;20039;-72
2022/09/05 04:57:16;;;;;;;4.85;3.97;;;;;;;13.74;84.00;98717.91;7388897;19;20478;-73
2022/09/05 04:59:49;;;;;;;7.68;3.88;;;;;;;13.81;84.35;98722.41;7384088;19;20010;-72
2022/09/05 05:02:45;;;;;;;4.30;3.90;;;;;;;13.87;84.12;98730.69;7390038;19;20010;-72
2022/09/05 05:05:43;;;;;;;5.82;3.80;;;;;;;13.85;83.58;98736.22;7386680;19;20010;-72
2022/09/05 05:08:55;;;;;;;8.65;4.43;;;;;;;13.89;83.39;98736.69;7390273;19;20018;-72
2022/09/05 05:11:43;;;;;;;6.85;4.15;;;;;;;13.83;83.17;98739.03;7384769;19;21217;-73
2022/09/05 05:14:41;;;;;;;4.25;3.85;;;;;;;13.96;83.16;98741.16;7388356;19;20010;-72
2022/09/05 05:17:36;;;;;;;4.07;3.25;;;;;;;13.91;82.73;98743.50;7389131;19;20010;-72
2022/09/05 05:20:36;;;;;;;4.55;4.10;;;;;;;13.98;83.49;98744.50;7384099;19;20010;-72
2022/09/05 05:23:15;;;;;;;5.78;3.15;;;;;;;13.92;82.81;98734.50;7389107;19;20025;-72
2022/09/05 05:25:49;;;;;;;6.03;3.90;;;;;;;13.79;82.95;98748.31;7387431;19;20437;-72
2022/09/05 05:28:25;;;;;;;7.70;4.60;;;;;;;13.73;83.20;98746.34;7388953;19;20029;-73
2022/09/05 05:30:54;;;;;;;5.97;4.78;;;;;;;13.68;83.32;98750.50;7387459;19;20010;-72
2022/09/05 05:33:32;;;;;;;5.57;4.80;;;;;;;13.71;83.50;98753.66;7386758;19;20340;-72
2022/09/05 05:36:00;;;;;;;10.23;4.28;;;;;;;13.83;83.62;98751.50;7383331;19;20014;-72
2022/09/05 05:38:37;;;;;;;9.23;4.70;;;;;;;13.90;83.31;98755.16;7383563;19;20022;-72
2022/09/05 05:41:25;;;;;;;5.32;4.30;;;;;;;13.82;83.17;98755.13;7381747;19;20519;-72
2022/09/05 05:43:52;;;;;;;4.85;4.05;;;;;;;13.93;83.36;98753.97;7387701;19;20501;-72
2022/09/05 05:46:27;;;;;;;4.95;4.47;;;;;;;14.15;83.06;98755.94;7381458;19;20018;-71
2022/09/05 05:49:03;;;;;;;7.38;4.15;;;;;;;14.34;82.56;98756.56;7383115;19;20048;-72
2022/09/05 05:51:41;;;;;;;7.03;4.68;;;;;;;14.49;82.17;98752.19;7384908;19;20022;-72
2022/09/05 05:54:48;;;;;;;7.47;4.65;;;;;;;14.64;81.82;98758.50;7389862;19;20027;-73
2022/09/05 05:57:18;;;;;;;5.30;4.20;;;;;;;14.69;81.33;98755.31;7387950;19;20040;-72
2022/09/05 06:00:03;;;;;;;4.47;3.97;;;;;;;14.80;80.85;98762.09;7389824;19;20045;-72
2022/09/05 06:02:52;;;;;;;5.43;3.85;;;;;;;14.87;80.31;98761.22;7389809;19;20035;-73
2022/09/05 06:06:05;;;;;;;5.70;4.25;;;;;;;14.71;80.00;98756.78;7386313;19;20014;-72
2022/09/05 06:08:44;;;;;;;7.40;4.10;;;;;;;14.64;80.20;98757.66;7384772;19;20036;-72
2022/09/05 06:11:54;;;;;;;6.95;4.35;;;;;;;14.66;80.41;98750.31;7386736;19;20018;-72
2022/09/05 06:15:12;;;;;;;6.35;3.97;;;;;;;14.82;80.64;98760.91;7389207;19;20018;-71
2022/09/05 06:18:06;;;;;;;6.15;4.07;;;;;;;14.95;79.76;98765.69;7386931;19;20010;-73
2022/09/05 06:20:50;;;;;;;6.25;3.85;;;;;;;14.88;79.51;98764.72;7385951;19;20358;-72
2022/09/05 06:24:10;;;;;;;5.80;4.18;;;;;;;15.08;79.64;98759.78;7389657;19;20014;-73
2022/09/05 06:27:00;;;;;;;5.50;3.90;;;;;;;15.24;78.62;98769.53;7385267;19;20410;-72
2022/09/05 06:29:35;;;;;;;5.38;3.55;;;;;;;15.25;78.47;98766.69;7385434;19;20441;-72
2022/09/05 06:32:10;;;;;;;7.50;4.10;;;;;;;15.28;79.17;98763.66;7388783;19;20028;-72
2022/09/05 06:34:46;;;;;;;7.38;3.90;;;;;;;15.50;79.58;98770.00;7388108;19;20062;-73
2022/09/05 06:37:51;;;;;;;6.95;3.65;;;;;;;15.59;79.70;98768.97;7384963;19;20024;-72
2022/09/05 06:40:23;;;;;;;6.63;4.10;;;;;;;15.72;78.71;98765.72;7386546;19;20112;-72
2022/09/05 06:43:02;;;;;;;8.10;4.03;;;;;;;15.83;79.10;98769.81;7384752;19;20030;-72
2022/09/05 06:45:36;;;;;;;6.32;3.95;;;;;;;15.99;78.92;98779.50;7384943;19;20019;-72
2022/09/05 06:48:11;;;;;;;11.27;4.68;;;;;;;16.21;78.35;98778.63;7386037;19;20085;-72
2022/09/05 06:51:07;;;;;;;9.25;4.72;;;;;;;16.33;78.29;98775.53;7386429;19;20022;-72
2022/09/05 06:54:06;;;;;;;8.77;4.45;;;;;;;16.48;77.50;98772.84;7385997;19;20014;-72
2022/09/05 06:57:31;;;;;;;8.48;4.10;;;;;;;16.60;77.44;98774.88;7385125;19;20022;-72
2022/09/05 07:00:06;;;;;;;5.60;4.00;;;;;;;16.78;77.14;98779.88;7382240;19;20573;-73
2022/09/05 07:03:09;;;;;;;8.35;4.53;;;;;;;16.97;77.11;98773.13;7385346;19;20114;-72
2022/09/05 07:06:02;;;;;;;7.75;4.38;;;;;;;17.13;76.10;98773.94;7384119;19;20036;-71
2022/09/05 07:08:46;;;;;;;8.57;4.05;;;;;;;17.17;76.14;98776.03;7386448;19;20093;-73
2022/09/05 07:11:25;;;;;;;5.78;3.50;;;;;;;17.27;76.07;98779.25;7381106;19;20022;-72
2022/09/05 07:14:00;;;;;;;6.22;3.55;;;;;;;17.38;75.43;98785.94;7385974;19;22577;-73
2022/09/05 07:16:36;;;;;;;4.57;2.92;;;;;;;17.66;74.15;98782.50;7381631;19;20018;-72
2022/09/05 07:19:26;;;;;;;6.00;3.08;;;;;;;18.06;72.30;98782.88;7383736;19;20021;-72
2022/09/05 07:22:13;;;;;;;4.07;3.13;;;;;;;18.45;70.99;98784.19;7387923;19;20007;-73
2022/09/05 07:25:06;;;;;;;5.00;3.10;;;;;;;18.75;69.28;98782.16;7387488;19;20038;-73
2022/09/05 07:27:48;;;;;;;4.32;2.45;;;;;;;19.05;68.28;98780.00;7380836;19;20018;-72
2022/09/05 07:30:42;;;;;;;4.95;2.90;;;;;;;19.27;67.88;98768.13;7383725;19;20014;-72
2022/09/05 07:33:09;;;;;;;3.47;3.08;;;;;;;19.44;68.00;98776.63;7382957;19;20490;-73
2022/09/05 07:35:37;;;;;;;4.90;3.13;;;;;;;19.48;67.21;98772.53;7385751;19;20030;-73
2022/09/05 07:38:27;;;;;;;3.10;2.53;;;;;;;19.69;66.22;98774.22;7386509;19;20366;-73
2022/09/05 07:41:23;;;;;;;3.38;2.90;;;;;;;19.72;65.49;98776.50;7383182;19;20018;-73
2022/09/05 07:43:54;;;;;;;6.20;2.50;;;;;;;19.72;65.87;98775.66;7383622;19;20441;-72
2022/09/05 07:46:24;;;;;;;3.58;3.17;;;;;;;19.76;65.65;98776.91;7380995;19;20035;-73
2022/09/05 07:48:58;;;;;;;4.72;2.55;;;;;;;19.69;64.95;98762.66;7381915;19;20105;-73
2022/09/05 07:51:31;;;;;;;4.32;2.83;;;;;;;19.66;65.90;98769.25;7383012;19;20026;-73
2022/09/05 07:54:23;;;;;;;9.18;2.40;;;;;;;19.77;64.84;98767.81;7385542;19;22839;-73
2022/09/05 07:57:15;;;;;;;3.53;2.78;;;;;;;19.82;65.94;98769.91;7385049;19;20015;-73
2022/09/05 08:00:06;;;;;;;2.15;1.95;;;;;;;20.03;65.16;98764.31;7384524;19;20014;-72
2022/09/05 08:02:48;;;;;;;4.03;2.63;;;;;;;20.23;63.79;98760.81;7383512;19;20017;-73
2022/09/05 08:05:22;;;;;;;3.67;2.40;;;;;;;20.41;63.56;98766.38;7378407;19;20053;-72
2022/09/05 08:08:04;;;;;;;7.40;2.72;;;;;;;20.49;63.60;98768.00;7381886;19;20044;-72
2022/09/05 08:10:39;;;;;;;4.53;2.50;;;;;;;20.51;62.91;98772.13;7384436;19;20010;-72
2022/09/05 08:13:42;;;;;;;3.50;2.65;;;;;;;20.69;62.70;98773.34;7386104;19;20822;-73
2022/09/05 08:16:14;;;;;;;7.00;2.33;;;;;;;20.79;62.86;98763.78;7382551;19;20014;-73
2022/09/05 08:19:12;;;;;;;4.10;2.83;;;;;;;21.03;61.48;98775.69;7379885;19;20021;-73
2022/09/05 08:21:48;;;;;;;2.85;2.22;;;;;;;21.11;61.75;98771.13;7382108;19;20018;-73
2022/09/05 08:24:19;;;;;;;3.50;2.20;;;;;;;21.24;60.70;98765.69;7383298;19;20025;-73
2022/09/05 08:26:58;;;;;;;3.17;2.38;;;;;;;21.38;60.72;98761.06;7382505;19;20015;-73
2022/09/05 08:29:39;;;;;;;6.40;2.08;;;;;;;21.40;59.46;98767.91;7380676;19;21497;-73
2022/09/05 08:32:11;;;;;;;4.90;2.20;;;;;;;21.46;60.73;98768.91;7378289;19;20032;-73
2022/09/05 08:34:48;;;;;;;3.38;2.13;;;;;;;21.67;60.66;98756.97;7380752;19;20026;-73
2022/09/05 08:37:20;;;;;;;3.70;2.20;;;;;;;21.81;58.22;98761.22;7381713;19;20038;-73
2022/09/05 08:39:51;;;;;;;2.45;2.25;;;;;;;22.14;58.90;98765.50;7379789;19;20019;-74
2022/09/05 08:43:13;;;;;;;3.85;2.30;;;;;;;22.52;57.72;98756.47;7381527;19;20021;-72
2022/09/05 08:46:46;;;;;;;3.33;2.10;;;;;;;22.83;56.49;98757.34;7381463;19;20017;-72
2022/09/05 08:49:33;;;;;;;3.15;1.83;;;;;;;22.82;56.78;98763.81;7384474;19;20014;-73
2022/09/05 08:52:29;;;;;;;3.90;2.10;;;;;;;23.10;55.26;98761.41;7383067;19;20044;-73
2022/09/05 08:55:11;;;;;;;3.17;1.63;;;;;;;23.02;55.63;98753.63;7378796;19;20029;-73
2022/09/05 08:58:08;;;;;;;3.15;1.65;;;;;;;23.17;55.09;98747.81;7381706;19;20025;-74
2022/09/05 09:00:45;;;;;;;2.47;1.90;;;;;;;23.33;54.30;98746.34;7382747;19;20762;-74
2022/09/05 09:03:35;;;;;;;2.88;1.95;;;;;;;23.18;55.63;98739.50;7382508;19;20018;-73
2022/09/05 09:06:13;;;;;;;3.55;1.60;;;;;;;23.16;55.71;98748.88;7379774;19;20015;-73
2022/09/05 09:09:00;;;;;;;4.70;2.47;;;;;;;23.35;54.35;98745.06;7378744;19;20086;-73
2022/09/05 09:11:41;;;;;;;2.75;2.05;;;;;;;23.36;55.27;98737.81;7377052;19;20718;-73
2022/09/05 09:14:31;;;;;;;4.90;2.20;;;;;;;23.41;54.71;98741.47;7378742;19;20482;-74
2022/09/05 09:17:11;;;;;;;2.58;2.08;;;;;;;23.69;53.76;98744.59;7379073;19;20014;-73
2022/09/05 09:19:53;;;;;;;3.78;1.65;;;;;;;23.76;53.24;98739.94;7381302;19;20010;-74
2022/09/05 09:22:32;;;;;;;6.63;1.80;;;;;;;23.63;54.25;98736.34;7377602;19;20021;-75
2022/09/05 09:24:59;;;;;;;5.45;2.20;;;;;;;23.82;53.64;98739.00;7379718;19;20360;-75
2022/09/05 09:27:46;;;;;;;5.90;1.98;;;;;;;24.06;51.29;98732.56;7379251;19;20023;-74
2022/09/05 09:30:33;;;;;;;2.80;1.77;;;;;;;24.20;51.22;98732.34;7383452;19;20011;-74
2022/09/05 09:33:05;;;;;;;1.90;1.67;;;;;;;24.43;50.93;98728.78;7390357;19;20028;-74
2022/09/05 09:35:42;;;;;;;2.92;1.90;;;;;;;24.42;51.49;98733.38;7389783;19;20006;-74
2022/09/05 09:38:32;;;;;;;5.63;2.58;;;;;;;24.56;51.17;98733.16;7387244;19;20018;-77
2022/09/05 09:41:20;;;;;;;2.33;1.98;;;;;;;24.63;50.07;98725.75;7386395;19;20480;-74
2022/09/05 09:44:20;;;;;;;2.00;1.80;;;;;;;24.70;49.59;98723.75;7391919;19;20025;-74
2022/09/05 09:46:49;;;;;;;4.50;2.05;;;;;;;24.85;48.96;98720.50;7385480;19;20010;-73
2022/09/05 09:49:33;;;;;;;5.80;2.00;;;;;;;24.88;50.60;98726.28;7392404;19;20619;-74
2022/09/05 09:52:46;;;;;;;2.35;2.00;;;;;;;24.67;50.65;98716.94;7391107;19;20021;-74
2022/09/05 09:55:31;;;;;;;3.53;1.88;;;;;;;24.72;50.01;98716.19;7389577;19;20014;-73
2022/09/05 09:58:11;;;;;;;4.55;2.10;;;;;;;24.63;50.80;98702.22;7388721;19;20392;-73
2022/09/05 10:01:12;;;;;;;4.30;2.20;;;;;;;24.64;49.65;98703.03;7390029;19;20014;-73
2022/09/05 10:03:59;;;;;;;3.90;1.70;;;;;;;24.61;49.87;98712.44;7389850;19;20029;-73
2022/09/05 10:07:15;;;;;;;4.72;2.03;;;;;;;24.77;49.98;98708.19;7386926;19;20006;-73
2022/09/05 10:10:24;;;;;;;3.88;2.08;;;;;;;24.83;49.32;98707.22;7388558;19;20473;-73
2022/09/05 10:13:13;;;;;;;3.20;1.77;;;;;;;24.94;49.68;98700.94;7390021;19;20014;-73
2022/09/05 10:16:09;;;;;;;4.03;1.83;;;;;;;24.95;48.97;98697.16;7385845;19;20014;-73
2022/09/05 10:19:21;;;;;;;3.60;1.98;;;;;;;24.91;48.63;98706.84;7390058;19;20028;-73
2022/09/05 10:22:30;;;;;;;5.35;2.20;;;;;;;24.86;49.26;98705.94;7388382;19;20567;-73
2022/09/05 10:25:28;;;;;;;4.40;2.25;;;;;;;24.88;50.53;98704.63;7390025;19;20010;-75
2022/09/05 10:28:06;;;;;;;3.42;1.95;;;;;;;24.93;48.42;98712.00;7385715;19;20018;-75
2022/09/05 10:30:45;;;;;;;2.67;1.83;;;;;;;25.08;46.51;98693.34;7383351;19;20350;-74
2022/09/05 10:33:37;;;;;;;3.33;1.80;;;;;;;25.14;45.97;98699.69;7388515;19;20006;-75
2022/09/05 10:36:26;;;;;;;2.15;1.95;;;;;;;25.05;47.13;98687.63;7388309;19;20021;-74
2022/09/05 10:39:15;;;;;;;3.85;1.92;;;;;;;24.97;49.05;98688.81;7388734;19;20025;-74
2022/09/05 10:42:05;;;;;;;6.25;1.95;;;;;;;24.96;47.71;98679.88;7383587;19;20023;-75
2022/09/05 10:44:54;;;;;;;2.10;1.73;;;;;;;25.03;49.32;98678.91;7389001;19;20021;-75
2022/09/05 10:47:29;;;;;;;2.75;1.85;;;;;;;25.04;47.61;98665.16;7386377;19;20015;-73
2022/09/05 10:50:27;;;;;;;2.03;1.70;;;;;;;25.15;45.96;98660.72;7385983;19;20082;-74
2022/09/05 10:53:00;;;;;;;3.08;1.85;;;;;;;25.14;47.48;98659.88;7383025;19;20497;-74
2022/09/05 10:55:58;;;;;;;3.05;1.80;;;;;;;25.12;47.00;98651.22;7388257;19;20022;-75
2022/09/05 10:58:49;;;;;;;2.38;1.65;;;;;;;25.17;47.24;98645.91;7385385;19;20082;-74
2022/09/05 11:01:59;;;;;;;2.17;1.55;;;;;;;25.22;47.53;98647.06;7384463;19;20017;-75
2022/09/05 11:04:47;;;;;;;3.08;1.77;;;;;;;25.49;44.05;98649.94;7384545;19;20014;-75
2022/09/05 11:07:20;;;;;;;2.33;1.55;;;;;;;25.51;46.00;98645.09;7384848;19;20427;-73
2022/09/05 11:10:07;;;;;;;4.22;2.00;;;;;;;25.66;45.20;98648.06;7385704;19;20022;-75
2022/09/05 11:12:46;;;;;;;2.45;1.83;;;;;;;25.68;45.55;98653.25;7387422;19;20018;-73
2022/09/05 11:15:33;;;;;;;3.13;1.83;;;;;;;25.63;46.29;98648.56;7387550;19;20021;-74
2022/09/05 11:18:04;;;;;;;3.33;1.88;;;;;;;25.52;46.81;98644.06;7388807;19;20017;-74
2022/09/05 11:20:48;;;;;;;2.47;1.70;;;;;;;25.55;45.87;98643.56;7384175;19;20019;-74
2022/09/05 11:23:30;;;;;;;2.17;1.60;;;;;;;25.52;44.92;98641.34;7385321;19;20022;-75
2022/09/05 11:26:04;;;;;;;2.85;1.83;;;;;;;25.61;43.92;98637.16;7382434;19;20014;-74
2022/09/05 11:28:40;;;;;;;5.55;1.70;;;;;;;25.79;42.26;98628.75;7383953;19;20581;-72
2022/09/05 11:31:36;;;;;;;1.67;1.58;;;;;;;25.91;41.55;98630.56;7384285;19;20025;-74
2022/09/05 11:34:29;;;;;;;3.25;1.70;;;;;;;26.12;42.84;98632.53;7388045;19;20484;-74
2022/09/05 11:37:37;;;;;;;4.28;1.73;;;;;;;26.21;41.12;98636.44;7383970;19;20470;-75
2022/09/05 11:40:36;;;;;;;2.80;2.03;;;;;;;26.33;40.46;98632.75;7384305;19;20026;-75
2022/09/05 11:43:45;;;;;;;5.55;1.70;;;;;;;26.36;40.48;98626.88;7379327;19;20026;-75
2022/09/05 11:46:24;;;;;;;2.28;1.50;;;;;;;26.56;38.10;98623.59;7385012;19;20374;-75
2022/09/05 11:49:09;;;;;;;1.73;1.60;;;;;;;26.43;40.41;98625.56;7387138;19;20436;-75
2022/09/05 11:51:48;;;;;;;2.58;1.55;;;;;;;26.43;41.30;98627.47;7384682;19;20019;-75
2022/09/05 11:54:44;;;;;;;2.53;1.58;;;;;;;26.40;38.30;98623.38;7386841;19;20810;-75
2022/09/05 11:57:19;;;;;;;1.50;1.40;;;;;;;26.45;36.46;98619.91;7381257;19;20021;-73
2022/09/05 12:00:19;;;;;;;2.30;1.55;;;;;;;26.12;39.15;98621.69;7379164;19;20030;-74
2022/09/05 12:03:16;;;;;;;2.17;1.50;;;;;;;26.28;37.22;98614.56;7387102;19;20011;-75
2022/09/05 12:06:13;;;;;;;3.03;1.75;;;;;;;26.48;38.71;98613.97;7385099;19;20011;-74
2022/09/05 12:08:59;;;;;;;3.25;1.80;;;;;;;26.55;37.72;98613.81;7375944;19;20104;-74
2022/09/05 12:11:43;;;;;;;2.08;1.35;;;;;;;26.61;38.97;98610.91;7378963;19;20641;-74
2022/09/05 12:14:29;;;;;;;3.60;1.58;;;;;;;26.50;39.30;98615.34;7383665;19;20020;-73
2022/09/05 12:17:28;;;;;;;5.88;1.80;;;;;;;26.42;37.78;98604.16;7384734;19;20017;-73
2022/09/05 12:20:05;;;;;;;2.42;1.48;;;;;;;26.39;38.34;98604.66;7384586;19;20015;-73
2022/09/05 12:22:55;;;;;;;1.80;1.15;;;;;;;26.45;38.67;98588.16;7388434;19;20082;-73
2022/09/05 12:25:22;;;;;;;2.17;1.50;;;;;;;26.58;37.39;98589.69;7385473;19;20597;-74
2022/09/05 12:28:12;;;;;;;3.13;1.60;;;;;;;26.19;38.13;98602.50;7382767;19;20010;-74
2022/09/05 12:31:21;;;;;;;3.25;1.80;;;;;;;26.08;37.73;98589.88;7384368;19;20047;-74
2022/09/05 12:34:17;;;;;;;2.45;1.70;;;;;;;26.23;35.59;98588.19;7384930;19;20022;-73
2022/09/05 12:37:09;;;;;;;3.33;1.77;;;;;;;26.14;36.96;98584.25;7385934;19;20350;-75
2022/09/05 12:39:59;;;;;;;;;;;;;;;26.21;39.41;98584.09;7385646;19;20549;-73
2022/09/05 12:42:53;;;;;;;3.17;1.67;;;;;;;26.26;39.23;98589.56;7381424;19;19918;-74
2022/09/05 12:46:20;;;;;;;4.60;2.05;;;;;;;26.10;38.51;98588.56;7384117;19;20033;-74
2022/09/05 12:49:09;;;;;;;5.65;1.98;;;;;;;26.15;38.34;98585.09;7382153;19;20022;-74
2022/09/05 12:51:45;;;;;;;4.13;1.88;;;;;;;26.09;37.59;98578.78;7376479;19;20014;-74
2022/09/05 12:54:24;;;;;;;5.32;1.60;;;;;;;26.22;39.57;98572.97;7386998;19;20081;-73
2022/09/05 12:57:18;;;;;;;3.28;1.60;;;;;;;26.30;37.94;98576.31;7385852;19;20010;-73
2022/09/05 13:00:13;;;;;;;1.65;1.50;;;;;;;26.46;37.69;98562.69;7385379;19;20011;-74
2022/09/05 13:03:02;;;;;;;4.78;1.70;;;;;;;26.73;38.27;98559.19;7384070;19;20015;-73
2022/09/05 13:06:02;;;;;;;2.90;1.50;;;;;;;26.88;36.39;98564.78;7389293;19;20643;-73
2022/09/05 13:08:42;;;;;;;4.70;1.70;;;;;;;26.52;33.99;98560.88;7390237;19;20014;-73